25°C Temp
'.PHP_EOL;
21°C Dewpoint
79% Humidity
Temperature
13 KM/H
8 MPH
7 KTS
160°
South South
East

Wind
Partly Cloudy
Pressure 1015.92 (hPa)- 30 (in)
Visibility 9.9 (mi) - 16 (km)

Current Conditions
KTUL
Location 18(mi)
Metar:
KTUL 191353Z 16007KT 10SM FEW030 25/21 A3000 RMK AO2 SLP149 T02500206
Sun 19th September 07:53 am

Airport
  Metar Aviation API Data Provided by https://www.checkwx.com/ Icons created by weather34.com